Time;durP1;ratioP1;P1;durP2;ratioP2;P2;SDS_P1;SDS_P2;PMS_P1;PMS_P2;Temp;Humidity;BMP_temperature;BMP_pressure;BME280_temperature;BME280_humidity;BME280_pressure;Samples;Min_cycle;Max_cycle;Signal;HPM_P1;HPM_P2
2023/07/30 00:00:03;;;;;;;20.33;15.52;;;;;;;26.04;100.00;97455.41;4842563;29;20486;-67
2023/07/30 00:02:38;;;;;;;20.85;15.13;;;;;;;26.06;100.00;97460.50;4843129;29;20053;-67
2023/07/30 00:05:08;;;;;;;22.58;15.40;;;;;;;26.05;100.00;97470.56;4842038;29;20613;-67
2023/07/30 00:07:37;;;;;;;28.98;17.10;;;;;;;26.08;100.00;97466.41;4840958;29;20057;-67
2023/07/30 00:10:07;;;;;;;20.88;15.40;;;;;;;26.07;100.00;97476.44;4826526;29;20057;-66
2023/07/30 00:12:38;;;;;;;24.50;16.25;;;;;;;26.07;100.00;97465.59;4840723;29;20133;-66
2023/07/30 00:15:08;;;;;;;18.73;14.68;;;;;;;26.05;100.00;97470.56;4837930;29;20068;-67
2023/07/30 00:17:38;;;;;;;21.63;16.88;;;;;;;26.05;100.00;97464.34;4842816;29;20161;-67
2023/07/30 00:20:08;;;;;;;19.88;14.88;;;;;;;26.04;100.00;97468.16;4821608;29;20594;-66
2023/07/30 00:22:38;;;;;;;26.23;15.90;;;;;;;26.04;100.00;97474.38;4826366;29;20778;-66
2023/07/30 00:25:08;;;;;;;20.35;15.30;;;;;;;26.05;100.00;97465.13;4840093;29;20070;-66
2023/07/30 00:27:37;;;;;;;19.15;14.80;;;;;;;26.06;100.00;97466.75;4839781;29;20366;-67
2023/07/30 00:30:07;;;;;;;20.48;14.88;;;;;;;26.07;100.00;97462.88;4829184;29;20117;-67
2023/07/30 00:32:43;;;;;;;20.63;15.63;;;;;;;26.08;100.00;97466.41;4827019;29;20050;-65
2023/07/30 00:35:14;;;;;;;19.40;15.50;;;;;;;26.10;100.00;97464.16;4842924;29;20141;-66
2023/07/30 00:37:43;;;;;;;22.20;14.77;;;;;;;26.11;100.00;97473.91;4820602;29;20061;-67
2023/07/30 00:40:13;;;;;;;21.52;15.27;;;;;;;26.12;100.00;97483.63;4835795;29;20061;-66
2023/07/30 00:42:42;;;;;;;20.02;15.38;;;;;;;26.13;100.00;97475.19;4846670;29;20475;-66
2023/07/30 00:45:13;;;;;;;18.70;14.27;;;;;;;26.16;100.00;97476.44;4848105;29;20813;-66
2023/07/30 00:47:44;;;;;;;17.77;13.95;;;;;;;26.17;100.00;97475.31;4834343;29;20056;-66
2023/07/30 00:50:16;;;;;;;18.65;15.00;;;;;;;26.19;100.00;97484.75;4828552;29;20140;-66
2023/07/30 00:52:46;;;;;;;20.50;15.25;;;;;;;26.18;100.00;97480.44;4833617;29;20054;-65
2023/07/30 00:55:16;;;;;;;21.80;15.25;;;;;;;26.16;100.00;97481.84;4838706;29;20058;-66
2023/07/30 00:57:46;;;;;;;21.20;15.43;;;;;;;26.23;100.00;97488.44;4841453;29;20050;-66
2023/07/30 01:00:15;;;;;;;22.20;15.05;;;;;;;26.28;100.00;97487.47;4826892;29;20168;-65
2023/07/30 01:02:45;;;;;;;19.90;15.65;;;;;;;26.29;100.00;97495.28;4840364;29;20081;-66
2023/07/30 01:05:15;;;;;;;20.80;15.32;;;;;;;26.32;100.00;97494.66;4804953;29;20053;-64
2023/07/30 01:07:45;;;;;;;19.98;14.77;;;;;;;26.35;100.00;97498.63;4811703;29;20682;-67
2023/07/30 01:10:15;;;;;;;21.20;15.10;;;;;;;26.38;100.00;97499.91;4828301;29;20053;-67
2023/07/30 01:12:46;;;;;;;24.98;15.77;;;;;;;26.42;100.00;97496.22;4838236;29;20785;-67
2023/07/30 01:15:16;;;;;;;20.40;15.27;;;;;;;26.45;100.00;97494.75;4832556;29;20488;-67
2023/07/30 01:17:46;;;;;;;23.05;16.35;;;;;;;26.45;100.00;97492.03;4841690;29;20795;-67
2023/07/30 01:20:17;;;;;;;25.67;17.42;;;;;;;26.55;100.00;97492.50;4823229;29;20069;-67
2023/07/30 01:22:47;;;;;;;22.00;17.50;;;;;;;26.63;100.00;97497.09;4821066;29;20053;-67
2023/07/30 01:25:16;;;;;;;23.25;17.20;;;;;;;26.68;100.00;97491.47;4839139;29;20045;-67
2023/07/30 01:27:52;;;;;;;22.52;16.75;;;;;;;26.72;100.00;97500.56;4832282;29;20076;-67
2023/07/30 01:30:32;;;;;;;22.77;16.50;;;;;;;26.80;100.00;97501.66;4821701;29;20389;-67
2023/07/30 01:33:03;;;;;;;27.67;17.63;;;;;;;26.88;100.00;97500.03;4837423;29;20191;-67
2023/07/30 01:35:34;;;;;;;23.67;18.13;;;;;;;26.93;100.00;97503.38;4826089;29;20049;-68
2023/07/30 01:38:06;;;;;;;23.08;17.73;;;;;;;27.00;100.00;97505.56;4832693;29;20050;-67
2023/07/30 01:40:35;;;;;;;24.42;18.13;;;;;;;27.05;100.00;97510.81;4824803;29;20562;-67
2023/07/30 01:43:04;;;;;;;24.10;17.58;;;;;;;27.09;100.00;97512.53;4817118;29;20064;-67
2023/07/30 01:45:34;;;;;;;22.20;17.30;;;;;;;27.14;100.00;97512.34;4811288;29;20053;-67
2023/07/30 01:48:04;;;;;;;22.63;16.20;;;;;;;27.24;100.00;97516.63;4825374;29;20121;-67
2023/07/30 01:50:33;;;;;;;25.05;17.45;;;;;;;27.29;100.00;97513.72;4833821;29;20148;-66
2023/07/30 01:53:03;;;;;;;25.10;17.70;;;;;;;27.49;100.00;97521.13;4839584;29;20541;-66
2023/07/30 01:55:32;;;;;;;20.80;16.75;;;;;;;27.65;100.00;97524.06;4844539;29;20132;-66
2023/07/30 01:58:01;;;;;;;18.90;15.75;;;;;;;28.00;100.00;97530.00;4832664;29;20119;-66
2023/07/30 02:00:30;;;;;;;21.20;15.98;;;;;;;28.26;100.00;97536.03;4828789;29;20157;-66
2023/07/30 02:03:06;;;;;;;24.33;14.65;;;;;;;28.55;100.00;97526.88;4840667;29;20053;-66
2023/07/30 02:05:35;;;;;;;20.38;15.07;;;;;;;28.88;100.00;97535.84;4832040;29;20140;-66
2023/07/30 02:08:04;;;;;;;19.98;15.35;;;;;;;29.11;100.00;97533.47;4831285;29;20056;-66
2023/07/30 02:10:34;;;;;;;20.60;14.35;;;;;;;29.23;100.00;97529.91;4833374;29;20042;-66
2023/07/30 02:13:04;;;;;;;19.02;15.13;;;;;;;29.53;100.00;97528.53;4827579;29;20562;-66
2023/07/30 02:15:33;;;;;;;18.90;14.52;;;;;;;29.60;100.00;97533.41;4845074;29;20057;-66
2023/07/30 02:18:02;;;;;;;18.80;15.70;;;;;;;29.60;100.00;97538.88;4829489;29;20093;-66
2023/07/30 02:20:32;;;;;;;22.20;16.85;;;;;;;29.84;100.00;97538.78;4822178;29;20406;-67
2023/07/30 02:23:01;;;;;;;20.48;15.27;;;;;;;30.01;100.00;97538.53;4830903;29;20053;-66
2023/07/30 02:25:30;;;;;;;18.55;15.05;;;;;;;29.99;100.00;97535.38;4843405;29;20065;-66
2023/07/30 02:28:01;;;;;;;18.02;14.48;;;;;;;30.20;100.00;97535.16;4845512;29;20049;-66
2023/07/30 02:30:30;;;;;;;20.55;15.10;;;;;;;30.16;100.00;97546.00;4819593;29;20054;-66
2023/07/30 02:33:00;;;;;;;18.95;15.07;;;;;;;30.25;100.00;97543.91;4831508;29;20126;-66
2023/07/30 02:35:30;;;;;;;21.92;16.33;;;;;;;30.26;100.00;97542.78;4838266;29;20068;-67
2023/07/30 02:37:59;;;;;;;21.38;15.85;;;;;;;30.08;100.00;97540.69;4841108;29;20479;-66
2023/07/30 02:40:28;;;;;;;22.00;15.25;;;;;;;29.97;100.00;97547.75;4837236;29;20058;-66
2023/07/30 02:42:58;;;;;;;20.23;15.80;;;;;;;30.07;100.00;97558.22;4836915;29;20494;-66
2023/07/30 02:45:27;;;;;;;23.85;17.75;;;;;;;29.77;100.00;97554.97;4839952;29;20057;-66
2023/07/30 02:47:57;;;;;;;23.20;16.33;;;;;;;29.79;100.00;97556.22;4821847;29;20054;-67
2023/07/30 02:50:26;;;;;;;26.80;17.80;;;;;;;29.91;100.00;97554.63;4820607;29;20045;-67
2023/07/30 02:52:55;;;;;;;20.48;16.35;;;;;;;30.03;100.00;97557.31;4834632;29;20173;-65
2023/07/30 02:55:24;;;;;;;28.73;16.88;;;;;;;29.86;100.00;97555.63;4844681;29;20060;-66
2023/07/30 02:57:53;;;;;;;25.33;17.13;;;;;;;29.84;100.00;97555.19;4844592;29;20046;-65
2023/07/30 03:00:23;;;;;;;22.17;16.80;;;;;;;29.77;100.00;97552.25;4820281;29;20052;-65
2023/07/30 03:02:53;;;;;;;24.23;17.10;;;;;;;29.97;100.00;97559.50;4836419;29;20498;-66
2023/07/30 03:05:22;;;;;;;20.67;16.77;;;;;;;29.95;100.00;97559.06;4838434;29;20145;-66
2023/07/30 03:07:52;;;;;;;21.92;16.42;;;;;;;30.11;100.00;97557.16;4843683;29;20172;-66
2023/07/30 03:10:21;;;;;;;24.98;17.05;;;;;;;30.20;100.00;97567.94;4837079;29;20997;-66
2023/07/30 03:12:51;;;;;;;30.52;19.55;;;;;;;30.06;100.00;97562.06;4827818;29;20666;-66
2023/07/30 03:15:20;;;;;;;31.08;20.33;;;;;;;30.16;100.00;97554.19;4826431;29;20054;-66
2023/07/30 03:17:50;;;;;;;24.27;19.35;;;;;;;30.08;100.00;97559.81;4831469;29;20054;-65
2023/07/30 03:20:19;;;;;;;31.27;20.48;;;;;;;29.91;100.00;97560.91;4823113;29;20062;-66
2023/07/30 03:22:49;;;;;;;24.88;18.58;;;;;;;29.89;100.00;97554.97;4821094;29;20510;-66
2023/07/30 03:25:18;;;;;;;28.15;20.98;;;;;;;29.95;100.00;97558.25;4825832;29;20057;-66
2023/07/30 03:27:49;;;;;;;24.85;19.75;;;;;;;30.04;100.00;97559.72;4845051;29;20065;-66
2023/07/30 03:30:19;;;;;;;29.52;20.33;;;;;;;30.06;100.00;97551.94;4843993;29;20744;-66
2023/07/30 03:32:49;;;;;;;24.90;19.73;;;;;;;30.12;100.00;97553.31;4831103;29;20111;-66
2023/07/30 03:35:19;;;;;;;25.38;20.05;;;;;;;30.11;100.00;97559.91;4819217;29;20056;-66
2023/07/30 03:37:50;;;;;;;25.17;20.05;;;;;;;30.11;100.00;97561.81;4831517;29;20193;-67
2023/07/30 03:40:19;;;;;;;25.05;19.65;;;;;;;30.01;100.00;97559.59;4816480;29;20069;-67
2023/07/30 03:42:49;;;;;;;21.63;18.40;;;;;;;30.30;100.00;97562.78;4824938;29;20497;-67
2023/07/30 03:45:19;;;;;;;24.80;18.92;;;;;;;30.41;100.00;97563.06;4832040;29;20050;-67
2023/07/30 03:47:48;;;;;;;26.15;19.30;;;;;;;30.64;100.00;97560.56;4835463;29;20769;-66
2023/07/30 03:50:17;;;;;;;25.27;19.85;;;;;;;30.85;100.00;97571.28;4826407;29;20057;-66
2023/07/30 03:52:47;;;;;;;24.33;19.17;;;;;;;30.96;100.00;97569.59;4826533;29;20470;-67
2023/07/30 03:55:17;;;;;;;27.67;19.80;;;;;;;31.31;100.00;97569.69;4821714;29;20119;-67
2023/07/30 03:57:47;;;;;;;28.48;20.77;;;;;;;31.42;99.73;97576.22;4825090;29;20050;-65
2023/07/30 04:00:17;;;;;;;26.33;19.83;;;;;;;31.40;100.00;97576.56;4829862;29;20828;-65
2023/07/30 04:02:46;;;;;;;23.75;18.92;;;;;;;31.36;98.81;97583.09;4826050;29;20742;-65
2023/07/30 04:05:16;;;;;;;26.52;20.25;;;;;;;31.67;100.00;97574.84;4830066;29;20043;-67
2023/07/30 04:07:45;;;;;;;28.70;19.75;;;;;;;31.79;100.00;97582.13;4824730;29;20166;-66
2023/07/30 04:10:15;;;;;;;25.35;19.50;;;;;;;31.68;97.20;97581.13;4817316;29;20054;-68
2023/07/30 04:12:45;;;;;;;26.42;20.50;;;;;;;31.69;97.71;97578.00;4826455;29;20195;-65
2023/07/30 04:15:18;;;;;;;23.40;18.23;;;;;;;31.59;97.25;97578.59;4829987;29;20062;-67
2023/07/30 04:17:50;;;;;;;26.40;19.48;;;;;;;31.61;95.78;97577.06;4837334;29;20482;-67
2023/07/30 04:20:19;;;;;;;26.80;19.15;;;;;;;31.76;99.58;97580.13;4834545;29;20050;-67
2023/07/30 04:22:49;;;;;;;24.70;18.88;;;;;;;31.83;96.62;97580.25;4813364;29;20170;-67
2023/07/30 04:25:19;;;;;;;26.42;20.25;;;;;;;31.99;94.86;97578.28;4840011;29;20145;-68
2023/07/30 04:27:48;;;;;;;28.13;21.77;;;;;;;32.34;94.30;97591.94;4825357;29;20128;-66
2023/07/30 04:30:19;;;;;;;25.05;20.48;;;;;;;32.24;94.98;97584.28;4840499;29;20060;-67
2023/07/30 04:32:49;;;;;;;27.20;20.58;;;;;;;32.11;94.92;97589.13;4828304;29;20046;-68
2023/07/30 04:35:18;;;;;;;28.63;21.33;;;;;;;32.04;88.94;97595.19;4830629;29;20042;-66
2023/07/30 04:37:47;;;;;;;27.95;20.88;;;;;;;32.39;91.34;97588.91;4838023;29;20078;-66
2023/07/30 04:40:18;;;;;;;28.23;21.02;;;;;;;32.42;97.37;97583.47;4821317;29;20050;-66
2023/07/30 04:42:47;;;;;;;23.92;20.02;;;;;;;32.09;95.26;97592.22;4824959;29;20050;-68
2023/07/30 04:45:17;;;;;;;22.35;18.95;;;;;;;31.76;94.76;97604.78;4833929;29;20049;-70
2023/07/30 04:47:49;;;;;;;24.88;20.20;;;;;;;31.39;93.80;97599.59;4823621;29;20135;-67
2023/07/30 04:50:18;;;;;;;25.58;20.27;;;;;;;31.10;95.53;97597.34;4821012;29;20066;-66
2023/07/30 04:52:48;;;;;;;26.83;20.00;;;;;;;31.19;100.00;97596.00;4822753;29;20074;-65
2023/07/30 04:55:17;;;;;;;25.50;19.90;;;;;;;31.13;100.00;97600.16;4820431;29;20057;-66
2023/07/30 04:57:46;;;;;;;25.92;20.88;;;;;;;30.98;100.00;97598.16;4818942;29;20078;-66
2023/07/30 05:00:16;;;;;;;33.53;24.38;;;;;;;31.07;100.00;97596.06;4821054;29;20766;-66
2023/07/30 05:02:46;;;;;;;34.83;25.02;;;;;;;31.13;100.00;97594.69;4829341;29;20050;-67
2023/07/30 05:05:15;;;;;;;34.75;24.35;;;;;;;31.06;100.00;97597.25;4823258;29;20049;-67
2023/07/30 05:07:44;;;;;;;35.45;25.15;;;;;;;31.03;100.00;97600.66;4812811;29;20380;-67
2023/07/30 05:10:13;;;;;;;31.35;24.23;;;;;;;30.94;100.00;97591.00;4824223;29;20090;-67
2023/07/30 05:12:43;;;;;;;33.63;24.15;;;;;;;30.82;100.00;97593.84;4838313;29;20398;-67
2023/07/30 05:15:12;;;;;;;36.65;24.90;;;;;;;30.75;100.00;97594.47;4824428;29;20110;-67
2023/07/30 05:17:41;;;;;;;37.13;25.75;;;;;;;30.70;100.00;97592.78;4832216;29;20054;-68
2023/07/30 05:20:11;;;;;;;28.80;23.38;;;;;;;30.67;100.00;97596.19;4823508;29;20542;-67
2023/07/30 05:22:40;;;;;;;29.88;23.17;;;;;;;30.56;100.00;97597.88;4825134;29;20088;-65
2023/07/30 05:25:10;;;;;;;30.23;23.33;;;;;;;30.58;100.00;97595.56;4825871;29;20746;-66
2023/07/30 05:27:39;;;;;;;29.90;22.50;;;;;;;30.74;100.00;97603.81;4821044;29;20041;-67
2023/07/30 05:30:10;;;;;;;28.08;22.55;;;;;;;31.02;100.00;97593.63;4819341;29;20065;-67
2023/07/30 05:32:40;;;;;;;32.13;23.60;;;;;;;31.19;100.00;97595.22;4833175;29;20110;-67
2023/07/30 05:35:09;;;;;;;27.20;22.55;;;;;;;31.35;100.00;97595.19;4823925;29;20065;-67
2023/07/30 05:37:38;;;;;;;30.85;22.85;;;;;;;31.59;100.00;97598.53;4821920;29;20670;-67
2023/07/30 05:40:08;;;;;;;29.25;23.13;;;;;;;31.82;100.00;97595.91;4816688;29;20054;-67
2023/07/30 05:42:42;;;;;;;28.10;22.77;;;;;;;31.75;100.00;97587.53;4818820;29;20161;-67
2023/07/30 05:45:12;;;;;;;31.15;23.65;;;;;;;31.80;99.03;97587.25;4822104;29;20064;-67
2023/07/30 05:47:42;;;;;;;28.30;23.23;;;;;;;31.86;95.81;97585.84;4829272;29;20066;-67
2023/07/30 05:50:11;;;;;;;31.27;23.88;;;;;;;32.20;97.58;97586.16;4820956;29;20073;-67
2023/07/30 05:52:41;;;;;;;27.75;22.92;;;;;;;32.24;93.84;97585.09;4819780;29;20058;-67
2023/07/30 05:55:10;;;;;;;29.50;22.35;;;;;;;32.21;99.07;97588.56;4815814;29;20056;-67
2023/07/30 05:57:40;;;;;;;29.77;23.00;;;;;;;32.12;97.98;97585.22;4825385;29;20058;-67
2023/07/30 06:00:10;;;;;;;27.58;21.80;;;;;;;31.82;100.00;97578.69;4813660;29;20193;-66
2023/07/30 06:02:39;;;;;;;27.23;20.80;;;;;;;31.58;100.00;97572.31;4799921;29;20053;-66
2023/07/30 06:05:09;;;;;;;23.80;19.25;;;;;;;31.25;99.35;97579.31;4813140;29;20054;-66
2023/07/30 06:07:39;;;;;;;29.25;20.67;;;;;;;31.23;100.00;97568.72;4815763;29;20149;-66
2023/07/30 06:10:08;;;;;;;25.73;19.85;;;;;;;31.06;100.00;97574.56;4816259;29;20137;-67
2023/07/30 06:12:38;;;;;;;27.08;20.92;;;;;;;31.11;100.00;97575.06;4815484;29;20060;-66
2023/07/30 06:15:09;;;;;;;29.80;21.02;;;;;;;31.08;100.00;97584.00;4820143;29;20111;-68
2023/07/30 06:17:39;;;;;;;31.42;19.90;;;;;;;31.46;100.00;97585.28;4837651;29;20078;-68
2023/07/30 06:20:11;;;;;;;24.25;19.85;;;;;;;31.59;100.00;97578.59;4824721;29;20057;-67
2023/07/30 06:22:40;;;;;;;30.25;20.70;;;;;;;31.49;100.00;97577.16;4839084;29;20543;-67
2023/07/30 06:25:15;;;;;;;24.77;20.33;;;;;;;31.58;100.00;97571.53;4823103;29;20053;-67
2023/07/30 06:27:44;;;;;;;26.33;20.38;;;;;;;31.81;98.37;97574.38;4819079;29;20058;-66
2023/07/30 06:30:14;;;;;;;24.55;19.83;;;;;;;31.91;98.93;97576.56;4816848;29;20137;-67
2023/07/30 06:32:43;;;;;;;28.10;21.25;;;;;;;32.09;97.67;97575.78;4839583;29;20096;-65
2023/07/30 06:35:14;;;;;;;26.33;20.40;;;;;;;32.31;96.41;97581.69;4821806;29;20444;-64
2023/07/30 06:37:43;;;;;;;25.35;20.60;;;;;;;32.48;95.27;97586.72;4819411;29;20061;-66
2023/07/30 06:40:12;;;;;;;24.00;20.77;;;;;;;32.44;93.60;97572.94;4819610;29;20050;-65
2023/07/30 06:42:42;;;;;;;27.58;21.30;;;;;;;32.58;91.69;97571.59;4820208;29;20050;-68
2023/07/30 06:45:12;;;;;;;23.42;19.88;;;;;;;32.62;92.93;97567.81;4820886;29;20050;-66
2023/07/30 06:47:41;;;;;;;25.58;19.25;;;;;;;32.84;93.71;97572.50;4821831;29;20115;-65
2023/07/30 06:50:11;;;;;;;26.55;20.27;;;;;;;32.87;87.90;97566.31;4817896;29;20050;-66
2023/07/30 06:52:40;;;;;;;24.83;19.52;;;;;;;32.91;87.44;97564.41;4819609;29;20066;-66
2023/07/30 06:55:10;;;;;;;24.88;19.08;;;;;;;33.05;89.41;97560.31;4819453;29;20061;-65
2023/07/30 06:57:39;;;;;;;28.80;20.67;;;;;;;33.13;87.45;97562.03;4824095;29;20065;-66
2023/07/30 07:00:10;;;;;;;28.50;21.50;;;;;;;33.15;89.69;97559.75;4825583;29;20058;-67
2023/07/30 07:02:40;;;;;;;27.95;21.70;;;;;;;33.01;89.00;97557.53;4819308;29;20111;-69
2023/07/30 07:05:09;;;;;;;26.77;20.80;;;;;;;33.04;87.84;97547.75;4820035;29;21179;-68
2023/07/30 07:07:40;;;;;;;25.52;20.17;;;;;;;32.96;90.19;97552.34;4821952;29;20057;-68
2023/07/30 07:10:13;;;;;;;24.00;21.08;;;;;;;33.06;89.45;97548.97;4803704;29;20057;-69
2023/07/30 07:12:42;;;;;;;;;;;;;;;33.00;87.41;97544.16;4820459;29;20061;-68
2023/07/30 07:15:12;;;;;;;25.83;19.05;;;;;;;33.08;87.43;97545.88;4816860;29;20417;-67
2023/07/30 07:17:41;;;;;;;26.23;19.77;;;;;;;33.14;87.53;97542.47;4818997;29;20129;-64
2023/07/30 07:20:11;;;;;;;24.58;19.05;;;;;;;33.23;83.94;97543.03;4817372;29;20061;-65
2023/07/30 07:22:41;;;;;;;23.20;18.85;;;;;;;33.26;85.89;97536.00;4815557;29;20058;-64
2023/07/30 07:25:10;;;;;;;25.63;18.83;;;;;;;33.36;84.82;97532.63;4816977;29;20154;-67
2023/07/30 07:27:40;;;;;;;26.42;19.25;;;;;;;33.48;84.50;97529.66;4832837;29;20490;-67
2023/07/30 07:30:10;;;;;;;23.25;19.15;;;;;;;33.46;83.57;97529.22;4814911;29;20050;-67
2023/07/30 07:32:40;;;;;;;26.63;19.33;;;;;;;33.41;85.31;97530.31;4818142;29;20054;-66
2023/07/30 07:35:11;;;;;;;23.38;19.45;;;;;;;33.07;84.80;97519.56;4818971;29;20137;-66
2023/07/30 07:37:46;;;;;;;30.17;21.40;;;;;;;32.70;82.30;97517.44;4818122;29;20064;-66
2023/07/30 07:40:16;;;;;;;26.63;21.10;;;;;;;32.65;84.23;97511.47;4817609;29;20386;-67
2023/07/30 07:42:45;;;;;;;25.80;22.08;;;;;;;32.76;83.82;97506.94;4817528;29;20046;-67
2023/07/30 07:45:15;;;;;;;23.15;20.23;;;;;;;32.90;88.11;97507.97;4829810;29;20141;-69
2023/07/30 07:47:45;;;;;;;28.15;20.42;;;;;;;32.81;89.65;97518.41;4816333;29;20676;-72
2023/07/30 07:50:15;;;;;;;25.85;20.70;;;;;;;32.70;89.30;97506.47;4817574;29;20741;-68
2023/07/30 07:52:45;;;;;;;25.88;20.00;;;;;;;32.68;85.34;97502.50;4819135;29;20054;-68
2023/07/30 07:55:14;;;;;;;23.23;20.63;;;;;;;32.83;88.93;97496.88;4818806;29;20525;-67
2023/07/30 07:57:44;;;;;;;22.83;19.48;;;;;;;33.01;89.47;97496.38;4822087;29;20106;-65
2023/07/30 08:00:13;;;;;;;23.85;19.52;;;;;;;32.93;83.93;97488.00;4814551;29;20050;-66
2023/07/30 08:02:43;;;;;;;31.80;27.27;;;;;;;32.64;87.96;97485.97;4820351;29;20141;-67
2023/07/30 08:05:14;;;;;;;33.95;28.58;;;;;;;32.52;88.96;97478.72;4822915;29;20503;-67
2023/07/30 08:07:48;;;;;;;34.13;30.50;;;;;;;32.45;85.58;97483.25;4816716;29;20070;-66
2023/07/30 08:10:18;;;;;;;35.03;31.20;;;;;;;32.44;90.13;97481.69;4825676;29;20416;-66
2023/07/30 08:12:48;;;;;;;36.05;27.20;;;;;;;32.49;86.27;97478.63;4820149;29;20443;-66
2023/07/30 08:15:18;;;;;;;27.42;24.42;;;;;;;32.65;88.12;97470.31;4822639;29;20115;-66
2023/07/30 08:17:48;;;;;;;36.28;29.85;;;;;;;32.69;85.10;97474.72;4837245;29;20072;-67
2023/07/30 08:20:17;;;;;;;35.78;29.50;;;;;;;32.41;86.84;97472.25;4824089;29;20457;-67
2023/07/30 08:22:47;;;;;;;34.28;30.55;;;;;;;32.33;88.05;97465.06;4825441;29;20061;-67
2023/07/30 08:25:17;;;;;;;36.70;32.67;;;;;;;32.21;89.65;97459.75;4839508;29;20057;-68
2023/07/30 08:27:47;;;;;;;38.20;33.03;;;;;;;32.22;92.11;97460.56;4838837;29;20054;-67
2023/07/30 08:30:16;;;;;;;39.00;33.28;;;;;;;32.29;89.11;97457.94;4837383;29;20130;-68
2023/07/30 08:32:46;;;;;;;37.50;33.45;;;;;;;32.43;87.67;97458.19;4832931;29;20058;-65
2023/07/30 08:35:16;;;;;;;37.67;31.70;;;;;;;32.70;89.54;97448.88;4836852;29;20062;-67
2023/07/30 08:37:45;;;;;;;44.80;34.22;;;;;;;32.67;87.95;97452.34;4822453;29;20141;-67
2023/07/30 08:40:15;;;;;;;41.78;32.47;;;;;;;32.68;89.86;97442.94;4837327;29;20049;-68
2023/07/30 08:42:45;;;;;;;38.03;31.10;;;;;;;32.68;89.91;97437.47;4839729;29;20064;-65
2023/07/30 08:45:21;;;;;;;38.25;32.25;;;;;;;32.73;89.35;97437.16;4820287;29;20202;-65
2023/07/30 08:47:52;;;;;;;37.60;33.13;;;;;;;32.85;90.15;97436.16;4837176;29;20049;-66
2023/07/30 08:50:22;;;;;;;37.05;33.05;;;;;;;32.90;89.04;97436.63;4832140;29;20050;-67
2023/07/30 08:52:54;;;;;;;40.78;33.70;;;;;;;32.92;90.75;97425.31;4839430;29;20558;-66
2023/07/30 08:55:26;;;;;;;42.25;33.75;;;;;;;32.94;88.90;97423.75;4838013;29;20042;-66
2023/07/30 08:57:58;;;;;;;41.22;34.15;;;;;;;32.79;85.58;97430.22;4840128;29;20755;-66
2023/07/30 09:00:34;;;;;;;41.53;33.95;;;;;;;32.73;88.76;97431.69;4839491;29;20102;-66
2023/07/30 09:03:05;;;;;;;39.90;32.83;;;;;;;32.87;88.56;97420.13;4826540;29;20061;-66
2023/07/30 09:05:35;;;;;;;36.90;32.85;;;;;;;32.94;89.98;97422.97;4840462;29;20049;-66
2023/07/30 09:08:04;;;;;;;38.42;32.30;;;;;;;32.89;88.29;97421.34;4835925;29;20059;-66
2023/07/30 09:10:33;;;;;;;34.25;30.55;;;;;;;32.86;86.81;97421.28;4818999;29;20065;-66
2023/07/30 09:13:03;;;;;;;33.35;29.73;;;;;;;32.80;88.24;97412.56;4820900;29;20060;-66
2023/07/30 09:15:38;;;;;;;35.00;28.67;;;;;;;32.74;85.29;97414.06;4824455;29;20068;-66
2023/07/30 09:18:08;;;;;;;36.03;32.28;;;;;;;32.64;87.58;97411.94;4836596;29;20061;-66
2023/07/30 09:20:42;;;;;;;37.60;33.50;;;;;;;32.53;89.60;97410.94;4838195;29;20058;-67
2023/07/30 09:23:15;;;;;;;40.58;32.90;;;;;;;32.44;92.29;97411.19;4842423;29;20130;-64
2023/07/30 09:25:51;;;;;;;41.65;33.47;;;;;;;32.46;92.04;97405.34;4839154;29;20063;-64
2023/07/30 09:28:21;;;;;;;38.75;32.47;;;;;;;32.44;87.25;97389.25;4818784;29;20053;-65
2023/07/30 09:31:03;;;;;;;40.80;33.50;;;;;;;32.49;86.42;97401.88;4840080;29;20060;-65
2023/07/30 09:33:49;;;;;;;44.00;35.25;;;;;;;32.65;88.58;97388.84;4840168;29;20138;-65
2023/07/30 09:36:20;;;;;;;44.25;35.22;;;;;;;32.84;90.53;97383.25;4838152;29;20057;-64
2023/07/30 09:38:50;;;;;;;43.00;36.22;;;;;;;32.83;86.63;97384.44;4820461;29;20053;-67
2023/07/30 09:41:20;;;;;;;41.20;34.40;;;;;;;32.76;89.29;97378.03;4839431;29;20429;-65
2023/07/30 09:43:59;;;;;;;38.15;33.92;;;;;;;32.65;89.37;97366.91;4820848;29;20173;-63
2023/07/30 09:46:30;;;;;;;39.95;34.25;;;;;;;32.66;90.03;97368.50;4846326;29;20056;-65
2023/07/30 09:49:01;;;;;;;42.03;34.30;;;;;;;32.68;90.37;97366.16;4843680;29;20086;-65
2023/07/30 09:51:31;;;;;;;41.15;33.28;;;;;;;32.57;87.91;97369.91;4838334;29;20054;-69
2023/07/30 09:54:02;;;;;;;37.97;33.42;;;;;;;32.63;87.16;97363.75;4823120;29;20065;-70
2023/07/30 09:56:32;;;;;;;36.83;32.25;;;;;;;32.70;88.73;97363.88;4816997;29;20049;-64
2023/07/30 09:59:08;;;;;;;35.13;30.95;;;;;;;32.73;87.73;97363.13;4835712;29;20056;-66
2023/07/30 10:01:44;;;;;;;35.22;30.73;;;;;;;32.71;86.69;97359.94;4834996;29;20045;-66
2023/07/30 10:04:15;;;;;;;34.47;27.30;;;;;;;32.63;87.14;97351.97;4834264;29;20503;-64
2023/07/30 10:06:58;;;;;;;31.70;26.90;;;;;;;32.55;87.52;97345.56;4837466;29;20058;-63
2023/07/30 10:09:34;;;;;;;27.88;24.88;;;;;;;32.42;88.72;97342.25;4822967;29;20422;-64
2023/07/30 10:12:04;;;;;;;31.83;27.20;;;;;;;32.43;88.46;97338.38;4835900;29;20053;-64
2023/07/30 10:14:35;;;;;;;33.85;27.23;;;;;;;32.48;91.17;97334.50;4817542;29;20259;-64
2023/07/30 10:17:05;;;;;;;32.80;29.30;;;;;;;32.52;92.57;97327.13;4839634;29;20124;-66
2023/07/30 10:19:34;;;;;;;33.45;29.92;;;;;;;32.53;88.99;97321.25;4837487;29;20061;-65
2023/07/30 10:22:13;;;;;;;29.48;26.38;;;;;;;32.52;87.58;97327.13;4836222;29;20398;-66
2023/07/30 10:25:07;;;;;;;29.73;26.60;;;;;;;32.49;90.02;97319.63;4812162;29;20054;-65
2023/07/30 10:27:40;;;;;;;30.35;27.05;;;;;;;32.48;89.71;97315.31;4815117;29;20080;-66
2023/07/30 10:30:12;;;;;;;26.90;23.85;;;;;;;32.46;89.29;97312.16;4822374;29;20073;-67
2023/07/30 10:32:55;;;;;;;33.58;27.58;;;;;;;32.44;92.79;97306.25;4837807;29;20133;-65
2023/07/30 10:35:46;;;;;;;32.75;28.92;;;;;;;32.32;90.36;97296.28;4831174;29;20129;-65
2023/07/30 10:38:34;;;;;;;34.60;29.48;;;;;;;32.32;91.97;97288.06;4820996;29;20371;-66
2023/07/30 10:41:17;;;;;;;32.75;29.25;;;;;;;32.29;89.19;97293.50;4836436;29;20128;-67
2023/07/30 10:43:48;;;;;;;34.45;29.95;;;;;;;32.29;90.45;97290.75;4832368;29;20073;-67
2023/07/30 10:46:19;;;;;;;33.50;29.85;;;;;;;32.25;89.58;97287.16;4802326;29;20054;-66
2023/07/30 10:48:49;;;;;;;35.75;31.20;;;;;;;32.25;89.16;97287.16;4810676;29;20133;-67
2023/07/30 10:51:23;;;;;;;34.95;28.67;;;;;;;32.29;90.57;97286.06;4835667;29;20058;-63
2023/07/30 10:53:56;;;;;;;34.78;29.42;;;;;;;32.29;90.51;97282.53;4831333;29;20058;-63
2023/07/30 10:56:29;;;;;;;30.20;27.08;;;;;;;32.30;90.13;97276.69;4820132;29;20102;-63
2023/07/30 10:58:59;;;;;;;29.88;26.50;;;;;;;32.34;89.72;97274.78;4836217;29;20060;-64
2023/07/30 11:01:29;;;;;;;33.55;27.23;;;;;;;32.34;88.64;97263.81;4838186;29;20788;-63
2023/07/30 11:03:59;;;;;;;33.38;29.02;;;;;;;32.34;89.40;97257.56;4835443;29;20050;-63
2023/07/30 11:06:29;;;;;;;29.42;25.83;;;;;;;32.33;88.58;97259.50;4836358;29;20495;-63
2023/07/30 11:08:58;;;;;;;27.73;24.70;;;;;;;32.33;89.92;97256.75;4827160;29;20062;-64
2023/07/30 11:11:28;;;;;;;30.15;26.10;;;;;;;32.28;90.14;97251.59;4809516;29;20129;-63
2023/07/30 11:13:59;;;;;;;28.17;24.42;;;;;;;32.25;89.16;97243.31;4841525;29;20057;-64
2023/07/30 11:16:28;;;;;;;26.33;23.52;;;;;;;32.20;87.96;97251.84;4840837;29;20049;-63
2023/07/30 11:19:09;;;;;;;25.48;21.30;;;;;;;32.24;90.25;97242.53;4823669;29;20140;-64
2023/07/30 11:21:45;;;;;;;24.50;21.30;;;;;;;32.22;90.83;97249.56;4841131;29;20077;-64
2023/07/30 11:24:15;;;;;;;26.85;21.10;;;;;;;32.19;90.55;97253.00;4827469;29;20049;-63
2023/07/30 11:27:00;;;;;;;28.40;22.27;;;;;;;32.08;90.23;97245.41;4838403;29;20403;-63
2023/07/30 11:29:30;;;;;;;22.70;20.27;;;;;;;32.02;88.83;97246.88;4840041;29;20057;-63